Estación de La Unión Norte
Ultimos registro cada 15 minutos 36
| N° | Estación | Fecha / Hora | Temperatura | Humedad | Lluvia | Velocidad | Dirección | Radiación | Presion |
| 36 | La Unión Norte | 10-05-2026 08:45 | 0,7 | 98,9 | 0 | 0 | 187 | 14,4 | 1021,2 |
| 35 | La Unión Norte | 10-05-2026 08:30 | 0,5 | 98,9 | 0 | 0 | 187 | 11,9 | 1021,1 |
| 34 | La Unión Norte | 10-05-2026 08:15 | 0,1 | 98,8 | 0 | 0 | 187 | 8,1 | 1021 |
| 33 | La Unión Norte | 10-05-2026 08:00 | -0,1 | 98,8 | 0 | 0 | 187 | 4,4 | 1021,1 |
| 32 | La Unión Norte | 10-05-2026 07:45 | -0,1 | 98,7 | 0 | 0 | 187 | 0,6 | 1021,2 |
| 31 | La Unión Norte | 10-05-2026 07:30 | 0 | 98,7 | 0 | 0 | 187 | 0,6 | 1021,1 |
| 30 | La Unión Norte | 10-05-2026 07:15 | -0,1 | 98,6 | 0 | 0 | 187 | 0,6 | 1021,3 |
| 29 | La Unión Norte | 10-05-2026 07:00 | 0,1 | 98,7 | 0 | 0 | 187 | 0,6 | 1021,5 |
| 28 | La Unión Norte | 10-05-2026 06:45 | 0,2 | 98,6 | 0 | 0 | 187 | 0,6 | 1021,6 |
| 27 | La Unión Norte | 10-05-2026 06:30 | 0,2 | 98,5 | 0 | 0 | 187 | 0,6 | 1021,5 |
| 26 | La Unión Norte | 10-05-2026 06:15 | 0,1 | 98,3 | 0 | 0 | 187 | 0,6 | 1021,3 |
| 25 | La Unión Norte | 10-05-2026 06:00 | 0,5 | 98,5 | 0 | 0 | 187 | 0,6 | 1021,3 |
| 24 | La Unión Norte | 10-05-2026 05:45 | 0,6 | 98,4 | 0 | 0 | 187 | 0,6 | 1021,1 |
| 23 | La Unión Norte | 10-05-2026 05:30 | 0,5 | 98,4 | 0 | 0 | 187 | 0,6 | 1021,1 |
| 22 | La Unión Norte | 10-05-2026 05:15 | 0,5 | 98,3 | 0 | 0 | 187 | 0,6 | 1021,1 |
| 21 | La Unión Norte | 10-05-2026 05:00 | 0,7 | 98,4 | 0 | 0 | 187 | 0,6 | 1021,3 |
| 20 | La Unión Norte | 10-05-2026 04:45 | 0,5 | 98,1 | 0 | 0 | 187 | 0,6 | 1021 |
| 19 | La Unión Norte | 10-05-2026 04:30 | 0,9 | 98,1 | 0 | 0 | 187 | 0,6 | 1021,1 |
| 18 | La Unión Norte | 10-05-2026 04:15 | 0,9 | 98,2 | 0 | 0 | 187 | 0,6 | 1021 |
| 17 | La Unión Norte | 10-05-2026 04:00 | 1 | 98 | 0 | 0 | 187 | 0,6 | 1021 |
| 16 | La Unión Norte | 10-05-2026 03:45 | 1,2 | 98 | 0 | 0 | 187 | 0,6 | 1021,3 |
| 15 | La Unión Norte | 10-05-2026 03:30 | 1,2 | 98 | 0 | 0 | 187 | 0,6 | 1020,9 |
| 14 | La Unión Norte | 10-05-2026 03:15 | 1,4 | 98 | 0 | 0 | 187 | 0,6 | 1021,3 |
| 13 | La Unión Norte | 10-05-2026 03:00 | 1,4 | 97,9 | 0 | 0 | 187 | 0,6 | 1021,4 |
| 12 | La Unión Norte | 10-05-2026 02:45 | 1,5 | 97,9 | 0 | 0 | 187 | 0,6 | 1021,5 |
| 11 | La Unión Norte | 10-05-2026 02:30 | 1,6 | 97,8 | 0 | 0 | 187 | 0,6 | 1021,5 |
| 10 | La Unión Norte | 10-05-2026 02:15 | 1,4 | 97,5 | 0 | 0 | 187 | 0,6 | 1021,6 |
| 9 | La Unión Norte | 10-05-2026 02:00 | 1,6 | 97,6 | 0 | 0 | 187 | 0,6 | 1021,7 |
| 8 | La Unión Norte | 10-05-2026 01:45 | 1,8 | 97,5 | 0 | 0 | 187 | 0,6 | 1021,5 |
| 7 | La Unión Norte | 10-05-2026 01:30 | 2 | 97,3 | 0 | 0 | 187 | 0,6 | 1021,6 |
| 6 | La Unión Norte | 10-05-2026 01:15 | 2 | 97,3 | 0 | 0 | 187 | 0,6 | 1021,6 |
| 5 | La Unión Norte | 10-05-2026 01:00 | 2,2 | 97,1 | 0 | 0 | 187 | 0,6 | 1021,6 |
| 4 | La Unión Norte | 10-05-2026 00:45 | 2,4 | 97 | 0 | 0 | 187 | 0,6 | 1021,8 |
| 3 | La Unión Norte | 10-05-2026 00:30 | 2,6 | 97,1 | 0 | 0 | 187 | 0,6 | 1022 |
| 2 | La Unión Norte | 10-05-2026 00:15 | 2,8 | 97 | 0 | 0 | 187 | 0,6 | 1022,1 |
| 1 | La Unión Norte | 10-05-2026 00:00 | 2,9 | 96,8 | 0 | 0 | 187 | 0,6 | 1022,3 |